Summer Point, Vermont
Current Conditions -  °F | °C
As of 8:35 PM on Wednesday 26 Nov 2014 (Local Time) from K6B0 Reporting Station
Light Snow Light Snow  
Wind Chill: -5°   Ceiling: 500
Heat Index: -2°   Visibility: 1.7mi
Dew Point: -2°   Wind: 6mph
Humidity: 100%   Direction: 350°N
Pressure: 29.97"   Gusts: NA
Location:  44.0804°N, 73.3324°W
Report Text: K6B0 270135Z AUTO 35005KT 1 3/4SM -SN OVC005 M01/M01 A2997 RMK AO2 P0001 T10151015
Loading
Personal Weather Stations






























Interactive Weather Map New forecast layout! Learn more

10-Day Weather Forecast

Advertisements
Track Severe Weather on mobile